sensor_id;sensor_type;location;lat;lon;timestamp;temperature;humidity
9965;DHT22;5023;53.554;9.964;2024-01-30T00:04:43;7.10;99.90
9965;DHT22;5023;53.554;9.964;2024-01-30T00:09:48;7.00;99.90
9965;DHT22;5023;53.554;9.964;2024-01-30T00:14:50;6.90;99.90
9965;DHT22;5023;53.554;9.964;2024-01-30T00:19:51;6.90;99.90
9965;DHT22;5023;53.554;9.964;2024-01-30T00:24:55;6.90;99.90
9965;DHT22;5023;53.554;9.964;2024-01-30T00:29:57;6.90;99.90
9965;DHT22;5023;53.554;9.964;2024-01-30T00:34:59;6.90;99.90
9965;DHT22;5023;53.554;9.964;2024-01-30T00:40:02;6.80;99.90
9965;DHT22;5023;53.554;9.964;2024-01-30T00:45:11;6.80;99.90
9965;DHT22;5023;53.554;9.964;2024-01-30T00:50:13;6.80;99.90
9965;DHT22;5023;53.554;9.964;2024-01-30T00:55:16;6.70;99.90
9965;DHT22;5023;53.554;9.964;2024-01-30T01:00:18;6.70;99.90
9965;DHT22;5023;53.554;9.964;2024-01-30T01:05:21;6.60;99.90
9965;DHT22;5023;53.554;9.964;2024-01-30T01:10:25;6.70;99.90
9965;DHT22;5023;53.554;9.964;2024-01-30T01:15:27;6.60;99.90
9965;DHT22;5023;53.554;9.964;2024-01-30T01:20:29;6.60;99.90
9965;DHT22;5023;53.554;9.964;2024-01-30T01:25:33;6.60;99.90
9965;DHT22;5023;53.554;9.964;2024-01-30T01:30:34;6.60;99.90
9965;DHT22;5023;53.554;9.964;2024-01-30T01:35:36;6.50;99.90
9965;DHT22;5023;53.554;9.964;2024-01-30T01:40:39;6.60;99.90
9965;DHT22;5023;53.554;9.964;2024-01-30T01:45:41;6.50;99.90
9965;DHT22;5023;53.554;9.964;2024-01-30T01:50:43;6.60;99.90
9965;DHT22;5023;53.554;9.964;2024-01-30T01:55:47;6.60;99.90
9965;DHT22;5023;53.554;9.964;2024-01-30T02:00:50;6.50;99.90
9965;DHT22;5023;53.554;9.964;2024-01-30T02:05:53;6.50;99.90
9965;DHT22;5023;53.554;9.964;2024-01-30T02:10:58;6.50;99.90
9965;DHT22;5023;53.554;9.964;2024-01-30T02:16:00;6.50;99.90
9965;DHT22;5023;53.554;9.964;2024-01-30T02:21:05;6.60;99.90
9965;DHT22;5023;53.554;9.964;2024-01-30T02:26:07;6.50;99.90
9965;DHT22;5023;53.554;9.964;2024-01-30T02:31:10;6.50;99.90
9965;DHT22;5023;53.554;9.964;2024-01-30T02:36:13;6.50;99.90
9965;DHT22;5023;53.554;9.964;2024-01-30T02:41:16;6.60;99.90
9965;DHT22;5023;53.554;9.964;2024-01-30T02:46:18;6.60;99.90
9965;DHT22;5023;53.554;9.964;2024-01-30T02:51:21;6.50;99.90
9965;DHT22;5023;53.554;9.964;2024-01-30T02:56:23;6.50;99.90
9965;DHT22;5023;53.554;9.964;2024-01-30T03:01:25;6.40;99.90
9965;DHT22;5023;53.554;9.964;2024-01-30T03:06:28;6.30;99.90
9965;DHT22;5023;53.554;9.964;2024-01-30T03:11:30;6.40;99.90
9965;DHT22;5023;53.554;9.964;2024-01-30T03:16:32;6.50;99.90
9965;DHT22;5023;53.554;9.964;2024-01-30T03:21:35;6.50;99.90
9965;DHT22;5023;53.554;9.964;2024-01-30T03:26:37;6.50;99.90
9965;DHT22;5023;53.554;9.964;2024-01-30T03:31:39;6.40;99.90
9965;DHT22;5023;53.554;9.964;2024-01-30T03:36:43;6.40;99.90
9965;DHT22;5023;53.554;9.964;2024-01-30T03:41:45;6.40;99.90
9965;DHT22;5023;53.554;9.964;2024-01-30T03:46:47;6.30;99.90
9965;DHT22;5023;53.554;9.964;2024-01-30T03:51:50;6.30;99.90
9965;DHT22;5023;53.554;9.964;2024-01-30T03:56:52;6.20;99.90
9965;DHT22;5023;53.554;9.964;2024-01-30T04:01:54;6.10;99.90
9965;DHT22;5023;53.554;9.964;2024-01-30T04:06:57;6.10;99.90
9965;DHT22;5023;53.554;9.964;2024-01-30T04:11:59;6.00;99.90
9965;DHT22;5023;53.554;9.964;2024-01-30T04:17:03;6.00;99.90
9965;DHT22;5023;53.554;9.964;2024-01-30T04:22:06;5.90;99.90
9965;DHT22;5023;53.554;9.964;2024-01-30T04:27:08;5.90;99.90
9965;DHT22;5023;53.554;9.964;2024-01-30T04:32:10;5.90;99.90
9965;DHT22;5023;53.554;9.964;2024-01-30T04:37:13;5.80;99.90
9965;DHT22;5023;53.554;9.964;2024-01-30T04:42:15;5.80;99.90
9965;DHT22;5023;53.554;9.964;2024-01-30T04:47:17;5.80;99.90
9965;DHT22;5023;53.554;9.964;2024-01-30T04:52:21;5.70;99.90
9965;DHT22;5023;53.554;9.964;2024-01-30T04:57:22;5.70;99.90
9965;DHT22;5023;53.554;9.964;2024-01-30T05:02:24;5.60;99.90
9965;DHT22;5023;53.554;9.964;2024-01-30T05:07:28;5.70;99.90
9965;DHT22;5023;53.554;9.964;2024-01-30T05:12:30;5.60;99.90
9965;DHT22;5023;53.554;9.964;2024-01-30T05:17:32;5.60;99.90
9965;DHT22;5023;53.554;9.964;2024-01-30T05:22:35;5.60;99.90
9965;DHT22;5023;53.554;9.964;2024-01-30T05:27:39;5.60;99.90
9965;DHT22;5023;53.554;9.964;2024-01-30T05:32:41;5.60;99.90
9965;DHT22;5023;53.554;9.964;2024-01-30T05:37:44;5.60;99.90
9965;DHT22;5023;53.554;9.964;2024-01-30T05:42:47;5.60;99.90
9965;DHT22;5023;53.554;9.964;2024-01-30T05:47:49;5.80;99.90
9965;DHT22;5023;53.554;9.964;2024-01-30T05:52:52;5.60;99.90
9965;DHT22;5023;53.554;9.964;2024-01-30T05:57:54;5.70;99.90
9965;DHT22;5023;53.554;9.964;2024-01-30T06:02:56;5.70;99.90
9965;DHT22;5023;53.554;9.964;2024-01-30T06:08:10;5.80;99.90
9965;DHT22;5023;53.554;9.964;2024-01-30T06:13:18;5.60;99.90
9965;DHT22;5023;53.554;9.964;2024-01-30T06:18:20;5.60;99.90
9965;DHT22;5023;53.554;9.964;2024-01-30T06:23:23;5.60;99.90
9965;DHT22;5023;53.554;9.964;2024-01-30T06:28:28;5.60;99.90
9965;DHT22;5023;53.554;9.964;2024-01-30T06:33:32;5.60;99.90
9965;DHT22;5023;53.554;9.964;2024-01-30T06:38:35;5.60;99.90
9965;DHT22;5023;53.554;9.964;2024-01-30T06:43:39;5.60;99.90
9965;DHT22;5023;53.554;9.964;2024-01-30T06:48:41;5.60;99.90
9965;DHT22;5023;53.554;9.964;2024-01-30T06:53:46;5.60;99.90
9965;DHT22;5023;53.554;9.964;2024-01-30T06:58:48;5.60;99.90
9965;DHT22;5023;53.554;9.964;2024-01-30T07:03:50;5.70;99.90
9965;DHT22;5023;53.554;9.964;2024-01-30T07:08:54;5.70;99.90
9965;DHT22;5023;53.554;9.964;2024-01-30T07:13:56;5.70;99.90
9965;DHT22;5023;53.554;9.964;2024-01-30T07:19:03;5.70;99.90
9965;DHT22;5023;53.554;9.964;2024-01-30T07:24:06;5.70;99.90
9965;DHT22;5023;53.554;9.964;2024-01-30T07:29:08;5.80;99.90
9965;DHT22;5023;53.554;9.964;2024-01-30T07:34:11;5.70;99.90
9965;DHT22;5023;53.554;9.964;2024-01-30T07:39:14;5.80;99.90
9965;DHT22;5023;53.554;9.964;2024-01-30T07:44:16;5.80;99.90
9965;DHT22;5023;53.554;9.964;2024-01-30T07:49:18;5.90;99.90
9965;DHT22;5023;53.554;9.964;2024-01-30T07:54:21;6.00;99.90
9965;DHT22;5023;53.554;9.964;2024-01-30T07:59:24;6.10;99.90
9965;DHT22;5023;53.554;9.964;2024-01-30T08:04:25;6.10;99.90
9965;DHT22;5023;53.554;9.964;2024-01-30T08:09:29;6.10;99.90
9965;DHT22;5023;53.554;9.964;2024-01-30T08:14:31;6.10;99.90
9965;DHT22;5023;53.554;9.964;2024-01-30T08:19:33;6.10;99.90
9965;DHT22;5023;53.554;9.964;2024-01-30T08:24:36;6.10;99.90
9965;DHT22;5023;53.554;9.964;2024-01-30T08:29:38;6.10;99.90
9965;DHT22;5023;53.554;9.964;2024-01-30T08:34:40;6.20;99.90
9965;DHT22;5023;53.554;9.964;2024-01-30T08:39:43;6.20;99.90
9965;DHT22;5023;53.554;9.964;2024-01-30T08:44:46;6.20;99.90
9965;DHT22;5023;53.554;9.964;2024-01-30T08:49:47;6.50;99.90
9965;DHT22;5023;53.554;9.964;2024-01-30T08:54:51;6.30;99.90
9965;DHT22;5023;53.554;9.964;2024-01-30T08:59:53;6.30;99.90
9965;DHT22;5023;53.554;9.964;2024-01-30T09:04:54;6.30;99.90
9965;DHT22;5023;53.554;9.964;2024-01-30T09:09:58;6.40;99.90
9965;DHT22;5023;53.554;9.964;2024-01-30T09:15:00;6.40;99.90
9965;DHT22;5023;53.554;9.964;2024-01-30T09:20:03;6.40;99.90
9965;DHT22;5023;53.554;9.964;2024-01-30T09:25:06;6.50;99.90
9965;DHT22;5023;53.554;9.964;2024-01-30T09:30:09;6.60;99.90
9965;DHT22;5023;53.554;9.964;2024-01-30T09:35:11;6.70;99.90
9965;DHT22;5023;53.554;9.964;2024-01-30T09:40:14;6.80;99.90
9965;DHT22;5023;53.554;9.964;2024-01-30T09:45:19;6.80;99.90
9965;DHT22;5023;53.554;9.964;2024-01-30T09:50:21;7.00;99.90
9965;DHT22;5023;53.554;9.964;2024-01-30T09:55:25;7.00;99.90
9965;DHT22;5023;53.554;9.964;2024-01-30T10:00:27;7.10;99.90
9965;DHT22;5023;53.554;9.964;2024-01-30T10:05:31;7.10;99.90
9965;DHT22;5023;53.554;9.964;2024-01-30T10:10:35;7.10;99.90
9965;DHT22;5023;53.554;9.964;2024-01-30T10:15:38;7.10;99.90
9965;DHT22;5023;53.554;9.964;2024-01-30T10:20:41;7.20;99.90
9965;DHT22;5023;53.554;9.964;2024-01-30T10:25:44;7.20;99.90
9965;DHT22;5023;53.554;9.964;2024-01-30T10:30:46;7.30;99.90
9965;DHT22;5023;53.554;9.964;2024-01-30T10:35:49;7.50;99.90
9965;DHT22;5023;53.554;9.964;2024-01-30T10:40:54;7.50;99.90
9965;DHT22;5023;53.554;9.964;2024-01-30T10:46:04;7.70;99.90
9965;DHT22;5023;53.554;9.964;2024-01-30T10:51:09;7.80;99.90
9965;DHT22;5023;53.554;9.964;2024-01-30T10:56:14;7.90;99.90
9965;DHT22;5023;53.554;9.964;2024-01-30T11:01:19;8.10;99.90
9965;DHT22;5023;53.554;9.964;2024-01-30T11:06:24;8.30;99.90
9965;DHT22;5023;53.554;9.964;2024-01-30T11:11:27;8.40;99.90
9965;DHT22;5023;53.554;9.964;2024-01-30T11:16:32;8.50;99.90
9965;DHT22;5023;53.554;9.964;2024-01-30T11:21:41;8.60;99.90
9965;DHT22;5023;53.554;9.964;2024-01-30T11:26:44;8.60;99.90
9965;DHT22;5023;53.554;9.964;2024-01-30T11:31:52;8.70;99.90
9965;DHT22;5023;53.554;9.964;2024-01-30T11:36:56;8.80;99.90
9965;DHT22;5023;53.554;9.964;2024-01-30T11:42:01;8.90;99.90
9965;DHT22;5023;53.554;9.964;2024-01-30T11:47:05;8.90;99.90
9965;DHT22;5023;53.554;9.964;2024-01-30T11:52:08;9.20;99.90
9965;DHT22;5023;53.554;9.964;2024-01-30T11:57:11;9.20;99.90
9965;DHT22;5023;53.554;9.964;2024-01-30T12:02:16;9.30;99.90
9965;DHT22;5023;53.554;9.964;2024-01-30T12:07:18;9.50;99.90
9965;DHT22;5023;53.554;9.964;2024-01-30T12:12:23;9.50;99.90
9965;DHT22;5023;53.554;9.964;2024-01-30T12:17:29;9.60;99.90
9965;DHT22;5023;53.554;9.964;2024-01-30T12:22:31;9.70;99.90
9965;DHT22;5023;53.554;9.964;2024-01-30T12:27:35;9.80;99.90
9965;DHT22;5023;53.554;9.964;2024-01-30T12:32:37;9.90;99.90
9965;DHT22;5023;53.554;9.964;2024-01-30T12:37:43;10.00;99.90
9965;DHT22;5023;53.554;9.964;2024-01-30T12:42:47;10.00;99.90
9965;DHT22;5023;53.554;9.964;2024-01-30T12:47:50;10.10;99.90
9965;DHT22;5023;53.554;9.964;2024-01-30T12:52:52;10.10;99.90
9965;DHT22;5023;53.554;9.964;2024-01-30T12:57:55;10.10;99.90
9965;DHT22;5023;53.554;9.964;2024-01-30T13:02:58;10.10;99.90
9965;DHT22;5023;53.554;9.964;2024-01-30T13:08:00;10.20;99.90
9965;DHT22;5023;53.554;9.964;2024-01-30T13:13:03;10.20;99.90
9965;DHT22;5023;53.554;9.964;2024-01-30T13:18:06;10.10;99.90
9965;DHT22;5023;53.554;9.964;2024-01-30T13:23:08;10.20;99.90
9965;DHT22;5023;53.554;9.964;2024-01-30T13:28:11;10.20;99.90
9965;DHT22;5023;53.554;9.964;2024-01-30T13:33:13;10.20;99.90
9965;DHT22;5023;53.554;9.964;2024-01-30T13:38:17;10.20;99.90
9965;DHT22;5023;53.554;9.964;2024-01-30T13:43:21;10.20;99.90
9965;DHT22;5023;53.554;9.964;2024-01-30T13:48:23;10.30;99.90
9965;DHT22;5023;53.554;9.964;2024-01-30T13:53:25;10.30;99.90
9965;DHT22;5023;53.554;9.964;2024-01-30T13:58:28;10.30;99.90
9965;DHT22;5023;53.554;9.964;2024-01-30T14:03:34;10.30;99.90
9965;DHT22;5023;53.554;9.964;2024-01-30T14:08:36;10.40;99.90
9965;DHT22;5023;53.554;9.964;2024-01-30T14:13:39;10.40;99.90
9965;DHT22;5023;53.554;9.964;2024-01-30T14:18:41;10.40;99.90
9965;DHT22;5023;53.554;9.964;2024-01-30T14:23:43;10.40;99.90
9965;DHT22;5023;53.554;9.964;2024-01-30T14:28:46;10.40;99.90
9965;DHT22;5023;53.554;9.964;2024-01-30T14:33:50;10.40;99.90
9965;DHT22;5023;53.554;9.964;2024-01-30T14:38:52;10.40;99.90
9965;DHT22;5023;53.554;9.964;2024-01-30T14:43:55;10.40;99.90
9965;DHT22;5023;53.554;9.964;2024-01-30T14:48:57;10.40;99.90
9965;DHT22;5023;53.554;9.964;2024-01-30T14:54:00;10.50;99.90
9965;DHT22;5023;53.554;9.964;2024-01-30T14:59:03;10.50;99.90
9965;DHT22;5023;53.554;9.964;2024-01-30T15:04:05;10.50;99.90
9965;DHT22;5023;53.554;9.964;2024-01-30T15:09:07;10.50;99.90
9965;DHT22;5023;53.554;9.964;2024-01-30T15:14:11;10.50;99.90
9965;DHT22;5023;53.554;9.964;2024-01-30T15:19:13;10.50;99.90
9965;DHT22;5023;53.554;9.964;2024-01-30T15:24:18;10.50;99.90
9965;DHT22;5023;53.554;9.964;2024-01-30T15:29:30;10.50;99.90
9965;DHT22;5023;53.554;9.964;2024-01-30T15:34:32;10.60;99.90
9965;DHT22;5023;53.554;9.964;2024-01-30T15:39:34;10.60;99.90
9965;DHT22;5023;53.554;9.964;2024-01-30T15:44:38;10.50;99.90
9965;DHT22;5023;53.554;9.964;2024-01-30T15:49:41;10.60;99.90
9965;DHT22;5023;53.554;9.964;2024-01-30T15:54:43;10.60;99.90
9965;DHT22;5023;53.554;9.964;2024-01-30T15:59:47;10.60;99.90
9965;DHT22;5023;53.554;9.964;2024-01-30T16:04:48;10.70;99.90
9965;DHT22;5023;53.554;9.964;2024-01-30T16:09:51;10.70;99.90
9965;DHT22;5023;53.554;9.964;2024-01-30T16:14:54;10.70;99.90
9965;DHT22;5023;53.554;9.964;2024-01-30T16:19:56;10.60;99.90
9965;DHT22;5023;53.554;9.964;2024-01-30T16:24:58;10.50;99.90
9965;DHT22;5023;53.554;9.964;2024-01-30T16:30:01;10.50;99.90
9965;DHT22;5023;53.554;9.964;2024-01-30T16:35:04;10.60;99.90
9965;DHT22;5023;53.554;9.964;2024-01-30T16:40:07;10.60;99.90
9965;DHT22;5023;53.554;9.964;2024-01-30T16:45:11;10.50;99.90
9965;DHT22;5023;53.554;9.964;2024-01-30T16:50:13;10.50;99.90
9965;DHT22;5023;53.554;9.964;2024-01-30T16:55:15;10.50;99.90
9965;DHT22;5023;53.554;9.964;2024-01-30T17:00:18;10.60;99.90
9965;DHT22;5023;53.554;9.964;2024-01-30T17:05:20;10.60;99.90
9965;DHT22;5023;53.554;9.964;2024-01-30T17:10:22;10.60;99.90
9965;DHT22;5023;53.554;9.964;2024-01-30T17:15:25;10.60;99.90
9965;DHT22;5023;53.554;9.964;2024-01-30T17:20:27;10.60;99.90
9965;DHT22;5023;53.554;9.964;2024-01-30T17:25:29;10.60;99.90
9965;DHT22;5023;53.554;9.964;2024-01-30T17:30:33;10.60;99.90
9965;DHT22;5023;53.554;9.964;2024-01-30T17:35:37;10.70;99.90
9965;DHT22;5023;53.554;9.964;2024-01-30T17:40:40;10.70;99.90
9965;DHT22;5023;53.554;9.964;2024-01-30T17:45:43;10.70;99.90
9965;DHT22;5023;53.554;9.964;2024-01-30T17:50:45;10.70;99.90
9965;DHT22;5023;53.554;9.964;2024-01-30T17:55:47;10.70;99.90
9965;DHT22;5023;53.554;9.964;2024-01-30T18:00:50;10.80;99.90
9965;DHT22;5023;53.554;9.964;2024-01-30T18:05:52;10.70;99.90
9965;DHT22;5023;53.554;9.964;2024-01-30T18:10:56;10.70;99.90
9965;DHT22;5023;53.554;9.964;2024-01-30T18:16:00;10.70;99.90
9965;DHT22;5023;53.554;9.964;2024-01-30T18:21:02;10.70;99.90
9965;DHT22;5023;53.554;9.964;2024-01-30T18:26:04;10.60;99.90
9965;DHT22;5023;53.554;9.964;2024-01-30T18:31:09;10.60;99.90
9965;DHT22;5023;53.554;9.964;2024-01-30T18:36:12;10.60;99.90
9965;DHT22;5023;53.554;9.964;2024-01-30T18:41:14;10.50;99.90
9965;DHT22;5023;53.554;9.964;2024-01-30T18:46:17;10.50;99.90
9965;DHT22;5023;53.554;9.964;2024-01-30T18:51:22;10.50;99.90
9965;DHT22;5023;53.554;9.964;2024-01-30T18:56:24;10.50;99.90
9965;DHT22;5023;53.554;9.964;2024-01-30T19:01:27;10.50;99.90
9965;DHT22;5023;53.554;9.964;2024-01-30T19:06:29;10.40;99.90
9965;DHT22;5023;53.554;9.964;2024-01-30T19:11:31;10.50;99.90
9965;DHT22;5023;53.554;9.964;2024-01-30T19:16:34;10.40;99.90
9965;DHT22;5023;53.554;9.964;2024-01-30T19:21:36;10.20;99.90
9965;DHT22;5023;53.554;9.964;2024-01-30T19:26:38;10.30;99.90
9965;DHT22;5023;53.554;9.964;2024-01-30T19:31:45;10.30;99.90
9965;DHT22;5023;53.554;9.964;2024-01-30T19:36:47;10.20;99.90
9965;DHT22;5023;53.554;9.964;2024-01-30T19:41:49;10.20;99.90
9965;DHT22;5023;53.554;9.964;2024-01-30T19:46:52;10.10;99.90
9965;DHT22;5023;53.554;9.964;2024-01-30T19:51:54;10.10;99.90
9965;DHT22;5023;53.554;9.964;2024-01-30T19:56:56;10.10;99.90
9965;DHT22;5023;53.554;9.964;2024-01-30T20:01:59;10.00;99.90
9965;DHT22;5023;53.554;9.964;2024-01-30T20:07:01;9.90;99.90
9965;DHT22;5023;53.554;9.964;2024-01-30T20:12:04;9.90;99.90
9965;DHT22;5023;53.554;9.964;2024-01-30T20:17:07;9.80;99.90
9965;DHT22;5023;53.554;9.964;2024-01-30T20:22:13;9.80;99.90
9965;DHT22;5023;53.554;9.964;2024-01-30T20:27:15;9.70;99.90
9965;DHT22;5023;53.554;9.964;2024-01-30T20:32:19;9.60;99.90
9965;DHT22;5023;53.554;9.964;2024-01-30T20:37:21;9.60;99.90
9965;DHT22;5023;53.554;9.964;2024-01-30T20:42:23;9.50;99.90
9965;DHT22;5023;53.554;9.964;2024-01-30T20:47:26;9.50;99.90
9965;DHT22;5023;53.554;9.964;2024-01-30T20:52:28;9.40;99.90
9965;DHT22;5023;53.554;9.964;2024-01-30T20:57:30;9.30;99.90
9965;DHT22;5023;53.554;9.964;2024-01-30T21:02:35;9.20;99.90
9965;DHT22;5023;53.554;9.964;2024-01-30T21:07:38;9.20;99.90
9965;DHT22;5023;53.554;9.964;2024-01-30T21:12:41;9.20;99.90
9965;DHT22;5023;53.554;9.964;2024-01-30T21:17:45;9.10;99.90
9965;DHT22;5023;53.554;9.964;2024-01-30T21:22:48;9.00;99.90
9965;DHT22;5023;53.554;9.964;2024-01-30T21:27:50;9.00;99.90
9965;DHT22;5023;53.554;9.964;2024-01-30T21:32:53;8.90;99.90
9965;DHT22;5023;53.554;9.964;2024-01-30T21:37:55;8.80;99.90
9965;DHT22;5023;53.554;9.964;2024-01-30T21:42:57;8.70;99.90
9965;DHT22;5023;53.554;9.964;2024-01-30T21:48:00;8.70;99.90
9965;DHT22;5023;53.554;9.964;2024-01-30T21:53:03;8.60;99.90
9965;DHT22;5023;53.554;9.964;2024-01-30T21:58:05;8.50;99.90
9965;DHT22;5023;53.554;9.964;2024-01-30T22:03:09;8.40;99.90
9965;DHT22;5023;53.554;9.964;2024-01-30T22:08:10;8.40;99.90
9965;DHT22;5023;53.554;9.964;2024-01-30T22:13:12;8.40;99.90
9965;DHT22;5023;53.554;9.964;2024-01-30T22:18:16;8.30;99.90
9965;DHT22;5023;53.554;9.964;2024-01-30T22:23:18;8.20;99.90
9965;DHT22;5023;53.554;9.964;2024-01-30T22:28:20;8.10;99.90
9965;DHT22;5023;53.554;9.964;2024-01-30T22:33:23;8.10;99.90
9965;DHT22;5023;53.554;9.964;2024-01-30T22:38:26;8.00;99.90
9965;DHT22;5023;53.554;9.964;2024-01-30T22:43:29;8.00;99.90
9965;DHT22;5023;53.554;9.964;2024-01-30T22:48:35;7.80;99.90
9965;DHT22;5023;53.554;9.964;2024-01-30T22:53:37;7.80;99.90
9965;DHT22;5023;53.554;9.964;2024-01-30T22:58:39;7.60;99.90
9965;DHT22;5023;53.554;9.964;2024-01-30T23:03:42;7.60;99.90
9965;DHT22;5023;53.554;9.964;2024-01-30T23:08:44;7.50;99.90
9965;DHT22;5023;53.554;9.964;2024-01-30T23:13:46;7.40;99.90
9965;DHT22;5023;53.554;9.964;2024-01-30T23:18:49;7.30;99.90
9965;DHT22;5023;53.554;9.964;2024-01-30T23:23:51;7.30;99.90
9965;DHT22;5023;53.554;9.964;2024-01-30T23:28:53;7.30;99.90
9965;DHT22;5023;53.554;9.964;2024-01-30T23:33:57;7.20;99.90
9965;DHT22;5023;53.554;9.964;2024-01-30T23:38:59;7.30;99.90
9965;DHT22;5023;53.554;9.964;2024-01-30T23:44:00;7.30;99.90
9965;DHT22;5023;53.554;9.964;2024-01-30T23:49:04;7.20;99.90
9965;DHT22;5023;53.554;9.964;2024-01-30T23:54:06;7.10;99.90
9965;DHT22;5023;53.554;9.964;2024-01-30T23:59:10;7.00;99.90
